Binger, Oklahoma
Current Conditions -  °F | °C
As of 5:35 PM on Monday 22 Dec 2014 (Local Time) from KRQO Reporting Station
Clear Clear  
Wind Chill: 42°   Ceiling: Unl
Heat Index: 46°   Visibility: NA
Dew Point: 36°   Wind: 9mph
Humidity: 66%   Direction: 340°NNW
Pressure: 29.65"   Gusts: NA
Location:  35.31°N, 98.34°W
Report Text: KRQO 222335Z AUTO 34008KT CLR 08/02 A2965 RMK AO2 PWINO
Loading
Personal Weather Stations






























Interactive Weather Map New forecast layout! Learn more

10-Day Weather Forecast

Advertisements
Track Severe Weather on mobile